Startpagina
METAR-TAF:

METAR-TAF

Vliegvelden :

Istres, Frankrijk

breedte: 43-31N, lengte: 004-56E, hoogte: 23 m

Actueel weer

Dit bericht is 26 minuten geleden gemaakt, om 07:00 UTC
Wind 17 kt uit het noordnoordwesten
Temperatuur 26°C
Vochtigheid 42%
Druk 1017 hPa
Zicht 10 km of meer
geen wolken onder 1500 m en geen cumulonimbus

METAR: LFMI 050700Z AUTO 34017KT CAVOK 26/12 Q1017

Tijdstip: 09:26 (07:26 UTC)

Verwachting

Dit bericht is 15 uur en het 44 minuten geleden gemaakt, om 15:42 UTC
Verwachting geldig van 04 om 15 UTC tot 05 om 15 UTC
Wind 15 kt uit het noorden
Zicht 10 km of meer
geen wolken onder 1500 m en geen cumulonimbus
Wijzigt naar
van 04 om 19 UTC tot 04 om 21 UTC
Wind 20 kt uit het noorden met uitschieters tot 30 kt
Wijzigt naar
van 05 om 06 UTC tot 05 om 08 UTC
Wind 15 kt uit het noorden

TAF: LFMI 041542Z 0415/0515 35015KT CAVOK BECMG 0419/0421 35020G30KT BECMG 0506/0508 35015KT

Waarnemingen en weersverwachtingen van meer dan 4000 vliegvelden (METAR en TAF).

De beschikbare stations zijn de gele en rode punten op de kaart.

Ga met uw muis naar het station om de naam te zien.

Klik dan om waarnemingen en weersverwachtingen te zien.

kaart wijzigen: klik op de groene knoppen met een zwart kruis om in te zoomen, op de groene knop met een streepje om uit te zoomen of op de groene pijlen voor aangrenzende kaarten.


METAR-TAF: